Date,TemperatureHighF,TemperatureAvgF,TemperatureLowF,DewpointHighF,DewpointAvgF,DewpointLowF,HumidityHigh,HumidityAvg,HumidityLow,PressureMaxIn,PressureMinIn,WindSpeedMaxMPH,WindSpeedAvgMPH,GustSpeedMaxMPH,PrecipitationSumIn
2013-2-1,40.2,32.8,24.7,25.9,9.5,-0.8,61,39,22,30.37,29.83,13,2,31,0.00
2013-2-2,41.2,31.6,19.2,34.1,13.1,5.1,89,48,28,30.39,30.02,6,0,14,0.01
2013-2-3,47.4,39.5,31.5,34.5,26.9,19.5,93,64,38,30.00,29.83,6,1,21,0.00
2013-2-4,48.0,37.8,26.4,25.8,21.4,16.2,82,53,33,30.13,29.98,3,0,10,0.00
2013-2-5,59.2,44.8,35.4,33.2,29.7,25.4,82,57,35,29.97,29.87,2,0,10,0.00
2013-2-6,59.1,43.7,30.3,34.6,25.9,18.8,91,57,21,30.24,29.96,5,1,12,0.00
2013-2-7,41.5,38.4,35.6,35.9,32.0,25.1,93,78,54,30.31,30.02,2,0,5,0.34
2013-2-8,56.7,44.4,35.5,44.4,34.4,25.6,94,70,41,30.06,29.82,8,2,24,0.12
2013-2-9,52.9,39.8,29.7,25.2,20.6,13.1,78,50,21,30.34,30.04,5,1,13,0.00
2013-2-10,51.8,39.8,27.0,37.2,23.0,17.2,86,56,27,30.47,30.17,5,0,12,0.11
2013-2-11,55.7,49.4,42.9,54.3,47.3,37.7,95,93,81,30.17,29.92,3,0,13,0.08
2013-2-12,57.8,49.7,41.1,50.3,32.5,22.1,93,55,25,30.08,29.91,3,0,14,0.00
2013-2-13,48.5,44.1,39.5,43.5,40.4,32.2,93,87,56,29.93,29.62,5,0,16,0.21
2013-2-14,51.4,40.0,29.7,33.5,29.1,23.8,91,68,37,30.05,29.83,3,0,9,0.00
2013-2-15,59.9,44.9,30.6,37.1,30.5,25.8,93,63,27,30.08,29.92,3,0,13,0.00
2013-2-16,42.5,35.3,29.4,32.4,27.8,13.9,90,75,51,29.94,29.82,6,0,14,0.04
2013-2-17,37.5,29.5,23.2,15.5,8.7,2.7,72,43,24,30.26,29.94,12,2,32,0.01
2013-2-18,52.6,36.3,19.1,23.4,17.6,13.3,85,51,26,30.39,30.19,5,1,13,0.01
2013-2-19,45.3,39.1,33.7,42.2,32.7,22.4,93,79,52,30.20,29.86,2,0,10,0.20
2013-2-20,52.8,39.9,26.9,30.6,14.4,4.9,90,41,15,30.12,29.98,7,1,17,0.00
2013-2-21,54.3,40.7,25.0,19.4,14.5,9.7,73,37,17,30.22,30.10,2,0,10,0.00
2013-2-22,43.2,34.7,32.4,32.6,31.2,22.7,93,87,44,30.30,30.11,1,0,6,0.25
2013-2-23,42.8,38.3,34.6,40.9,36.5,32.8,94,93,93,30.12,29.81,1,0,5,0.15
2013-2-24,60.4,48.6,40.6,42.8,32.5,20.9,94,61,26,30.01,29.79,7,1,14,0.02
2013-2-25,40.3,36.9,32.9,27.3,22.3,19.6,66,55,46,30.21,30.02,2,0,6,0.00
2013-2-26,40.9,36.8,32.5,39.3,32.5,22.0,94,85,57,30.12,29.59,2,0,7,0.40
2013-2-27,55.9,45.8,38.3,40.5,36.4,33.6,94,73,45,29.77,29.62,6,0,16,0.01
2013-2-28,47.1,41.3,31.9,36.8,26.8,22.0,87,58,38,29.86,29.67,7,1,21,0.00